Time;durP1;ratioP1;P1;durP2;ratioP2;P2;SDS_P1;SDS_P2;PMS_P1;PMS_P2;Temp;Humidity;BMP_temperature;BMP_pressure;BME280_temperature;BME280_humidity;BME280_pressure;Samples;Min_cycle;Max_cycle;Signal;HPM_P1;HPM_P2
2021/08/13 00:00:23;;;;;;;25.83;23.50;;;;;;;13.94;100.00;99734.31;2096725;28;20226;-77
2021/08/13 00:01:23;;;;;;;26.33;23.65;;;;;;;14.17;100.00;99737.88;2096015;28;20222;-77
2021/08/13 00:02:25;;;;;;;26.57;23.20;;;;;;;14.08;100.00;99732.41;2096261;28;20301;-78
2021/08/13 00:03:25;;;;;;;25.05;22.75;;;;;;;14.07;100.00;99730.81;2097010;28;20257;-77
2021/08/13 00:04:27;;;;;;;26.20;23.13;;;;;;;14.01;100.00;99732.81;2096958;28;20225;-77
2021/08/13 00:05:30;;;;;;;25.73;23.15;;;;;;;14.01;100.00;99723.97;2096916;28;20224;-78
2021/08/13 00:06:31;;;;;;;24.98;22.83;;;;;;;13.94;100.00;99724.38;2096876;28;20241;-77
2021/08/13 00:07:33;;;;;;;25.03;22.43;;;;;;;13.97;100.00;99723.78;2097137;28;20214;-78
2021/08/13 00:08:33;;;;;;;25.73;23.15;;;;;;;13.90;100.00;99723.41;2096974;28;20222;-77
2021/08/13 00:09:35;;;;;;;25.33;23.03;;;;;;;13.84;100.00;99725.41;2096865;28;20226;-77
2021/08/13 00:10:35;;;;;;;26.55;23.75;;;;;;;13.77;100.00;99721.53;2097025;28;20220;-78
2021/08/13 00:11:38;;;;;;;25.17;22.73;;;;;;;13.81;100.00;99722.50;2096959;28;20297;-77
2021/08/13 00:12:38;;;;;;;25.40;23.25;;;;;;;13.90;100.00;99728.78;2096633;28;20684;-77
2021/08/13 00:13:40;;;;;;;25.27;22.90;;;;;;;13.89;100.00;99723.69;2096891;28;20565;-77
2021/08/13 00:14:40;;;;;;;25.80;23.30;;;;;;;13.86;100.00;99731.25;2096941;28;20245;-77
2021/08/13 00:15:42;;;;;;;25.83;23.47;;;;;;;13.79;100.00;99719.34;2096161;28;20234;-78
2021/08/13 00:16:43;;;;;;;26.40;23.40;;;;;;;13.75;100.00;99729.91;2096161;28;20744;-77
2021/08/13 00:17:44;;;;;;;26.10;23.50;;;;;;;13.70;100.00;99718.47;2097002;28;20617;-78
2021/08/13 00:18:45;;;;;;;27.90;23.40;;;;;;;13.68;100.00;99726.81;2096021;28;20228;-78
2021/08/13 00:19:47;;;;;;;27.10;23.77;;;;;;;13.64;100.00;99731.19;2096228;28;20218;-78
2021/08/13 00:20:50;;;;;;;26.02;23.52;;;;;;;13.63;100.00;99734.94;2096986;28;20229;-78
2021/08/13 00:21:52;;;;;;;26.73;24.05;;;;;;;13.65;100.00;99742.72;2096949;28;20249;-77
2021/08/13 00:22:53;;;;;;;25.30;23.10;;;;;;;13.69;100.00;99732.97;2095641;28;20221;-76
2021/08/13 00:23:54;;;;;;;26.52;23.75;;;;;;;13.72;100.00;99737.72;2095973;28;20313;-77
2021/08/13 00:24:55;;;;;;;24.90;22.63;;;;;;;13.83;100.00;99734.56;2096039;28;20259;-77
2021/08/13 00:25:56;;;;;;;24.80;22.57;;;;;;;13.91;100.00;99743.00;2096186;28;20650;-77
2021/08/13 00:26:58;;;;;;;25.70;23.08;;;;;;;13.84;100.00;99743.38;2095363;28;20318;-77
2021/08/13 00:27:59;;;;;;;24.80;22.60;;;;;;;13.76;100.00;99742.22;2096144;28;20226;-77
2021/08/13 00:29:01;;;;;;;25.53;23.00;;;;;;;13.69;100.00;99735.66;2097079;28;20292;-78
2021/08/13 00:30:02;;;;;;;26.70;23.83;;;;;;;13.67;100.00;99741.31;2096982;28;20225;-77
2021/08/13 00:31:05;;;;;;;30.77;24.30;;;;;;;13.64;100.00;99747.28;2096297;28;20661;-77
2021/08/13 00:32:06;;;;;;;27.35;24.40;;;;;;;13.65;100.00;99740.03;2096040;28;20222;-77
2021/08/13 00:33:09;;;;;;;27.27;24.58;;;;;;;13.64;100.00;99746.47;2087408;28;20673;-77
2021/08/13 00:34:09;;;;;;;27.30;24.35;;;;;;;13.61;100.00;99739.03;2088073;28;20230;-78
2021/08/13 00:35:11;;;;;;;27.25;24.60;;;;;;;13.58;100.00;99743.91;2081041;28;20630;-77
2021/08/13 00:36:15;;;;;;;27.35;24.65;;;;;;;13.54;100.00;99748.25;2095053;28;20234;-77
2021/08/13 00:37:18;;;;;;;27.67;24.27;;;;;;;13.53;100.00;99740.53;2088025;28;20563;-77
2021/08/13 00:38:20;;;;;;;26.48;23.95;;;;;;;13.53;100.00;99735.94;2087585;28;20291;-78
2021/08/13 00:39:21;;;;;;;27.48;24.88;;;;;;;13.51;100.00;99738.16;2093948;28;20253;-78
2021/08/13 00:40:22;;;;;;;27.43;24.63;;;;;;;13.50;100.00;99741.13;2096156;28;20222;-77
2021/08/13 00:41:23;;;;;;;26.48;23.83;;;;;;;13.48;100.00;99744.13;2087414;28;20226;-78
2021/08/13 00:42:26;;;;;;;28.02;25.27;;;;;;;13.46;100.00;99738.22;2096110;28;20222;-77
2021/08/13 00:43:27;;;;;;;26.50;24.00;;;;;;;13.46;100.00;99740.91;2096020;28;20230;-77
2021/08/13 00:44:30;;;;;;;25.47;23.23;;;;;;;13.60;100.00;99737.44;2088019;28;20223;-78
2021/08/13 00:45:32;;;;;;;25.92;23.50;;;;;;;13.75;100.00;99737.94;2085616;28;20223;-77
2021/08/13 00:46:38;;;;;;;25.92;23.63;;;;;;;13.75;100.00;99743.31;2095630;28;20337;-77
2021/08/13 00:47:44;;;;;;;25.55;23.20;;;;;;;13.70;100.00;99742.59;2081450;28;20718;-78
2021/08/13 00:48:49;;;;;;;26.73;23.88;;;;;;;13.67;100.00;99738.63;2079989;28;20285;-78
2021/08/13 00:50:15;;;;;;;25.60;23.10;;;;;;;13.58;100.00;99738.53;2088274;28;20221;-78
2021/08/13 00:51:20;;;;;;;26.85;24.10;;;;;;;13.55;100.00;99739.16;2088189;28;20226;-77
2021/08/13 00:52:22;;;;;;;26.60;23.90;;;;;;;13.52;100.00;99734.38;2087821;28;20225;-78
2021/08/13 00:53:24;;;;;;;25.63;23.23;;;;;;;13.49;100.00;99734.97;2095558;28;20232;-77
2021/08/13 00:54:27;;;;;;;26.35;23.63;;;;;;;13.45;100.00;99742.00;2096001;28;20233;-78
2021/08/13 00:55:28;;;;;;;25.20;22.95;;;;;;;13.45;100.00;99743.91;2096154;28;20320;-77
2021/08/13 00:56:35;;;;;;;26.67;24.08;;;;;;;13.42;100.00;99739.13;2088317;28;20312;-77
2021/08/13 00:57:58;;;;;;;26.23;23.60;;;;;;;13.39;100.00;99735.19;2095300;28;20237;-77
2021/08/13 00:59:18;;;;;;;26.58;24.10;;;;;;;13.39;100.00;99745.91;2095934;28;20683;-77
2021/08/13 01:00:29;;;;;;;26.88;24.10;;;;;;;13.38;100.00;99733.59;2093814;28;20233;-78
2021/08/13 01:01:31;;;;;;;26.27;23.52;;;;;;;13.39;100.00;99737.06;2087666;28;20223;-77
2021/08/13 01:02:33;;;;;;;25.95;23.20;;;;;;;13.40;100.00;99739.44;2087840;28;20218;-78
2021/08/13 01:03:41;;;;;;;26.95;24.05;;;;;;;13.37;100.00;99731.19;2082080;28;20265;-77
2021/08/13 01:04:44;;;;;;;25.97;23.33;;;;;;;13.35;100.00;99731.50;2087708;28;20227;-77
2021/08/13 01:05:53;;;;;;;26.90;23.98;;;;;;;13.40;100.00;99731.41;2088516;28;20611;-77
2021/08/13 01:06:55;;;;;;;27.73;24.83;;;;;;;13.35;100.00;99728.81;2087408;28;20254;-78
2021/08/13 01:07:59;;;;;;;27.00;24.23;;;;;;;13.33;100.00;99731.00;2087968;28;20669;-78
2021/08/13 01:09:03;;;;;;;26.98;24.48;;;;;;;13.36;100.00;99733.06;2080280;28;20219;-77
2021/08/13 01:10:07;;;;;;;27.73;24.80;;;;;;;13.45;100.00;99733.97;2095693;28;20222;-77
2021/08/13 01:11:22;;;;;;;28.58;25.42;;;;;;;13.45;100.00;99735.84;2082115;28;20227;-77
2021/08/13 01:12:26;;;;;;;27.35;24.83;;;;;;;13.46;100.00;99735.56;2087766;28;20222;-78
2021/08/13 01:13:33;;;;;;;28.00;25.30;;;;;;;13.39;100.00;99723.66;2087982;28;20237;-78
2021/08/13 01:14:39;;;;;;;27.25;24.60;;;;;;;13.34;100.00;99732.59;2088322;28;20233;-78
2021/08/13 01:15:54;;;;;;;27.52;24.70;;;;;;;13.31;100.00;99732.41;2095574;28;20222;-78
2021/08/13 01:16:56;;;;;;;28.15;25.17;;;;;;;13.28;100.00;99731.88;2095677;28;20222;-77
2021/08/13 01:17:59;;;;;;;27.02;24.42;;;;;;;13.24;100.00;99730.09;2095865;28;20230;-77
2021/08/13 01:19:05;;;;;;;26.30;23.90;;;;;;;13.23;100.00;99740.03;2087980;28;20302;-78
2021/08/13 01:20:15;;;;;;;28.38;24.80;;;;;;;13.20;100.00;99734.44;2088208;28;20218;-78
2021/08/13 01:21:23;;;;;;;27.77;25.17;;;;;;;13.18;100.00;99732.03;2088097;28;20219;-78
2021/08/13 01:22:34;;;;;;;28.02;25.10;;;;;;;13.17;100.00;99732.34;2095550;28;20222;-78
2021/08/13 01:23:40;;;;;;;27.55;24.75;;;;;;;13.16;100.00;99728.06;2096705;28;20708;-78
2021/08/13 01:24:46;;;;;;;29.00;25.88;;;;;;;13.14;100.00;99727.59;2095336;28;20305;-77
2021/08/13 01:25:51;;;;;;;28.05;25.02;;;;;;;13.16;100.00;99736.13;2088439;28;20219;-77
2021/08/13 01:26:56;;;;;;;29.52;25.10;;;;;;;13.15;100.00;99738.00;2082841;28;20236;-77
2021/08/13 01:27:59;;;;;;;28.10;25.17;;;;;;;13.13;100.00;99740.19;2089157;28;20325;-77
2021/08/13 01:29:04;;;;;;;29.77;25.58;;;;;;;13.12;100.00;99727.88;2089650;28;20580;-78
2021/08/13 01:30:08;;;;;;;27.85;25.15;;;;;;;13.13;100.00;99731.34;2088952;28;20640;-77
2021/08/13 01:31:28;;;;;;;28.17;25.20;;;;;;;13.11;100.00;99728.16;2089798;28;20229;-78
2021/08/13 01:32:37;;;;;;;27.27;24.42;;;;;;;13.11;100.00;99728.16;2089230;28;20602;-78
2021/08/13 01:33:41;;;;;;;27.08;24.60;;;;;;;13.08;100.00;99726.88;2096731;28;20222;-78
2021/08/13 01:34:44;;;;;;;26.67;23.65;;;;;;;13.13;100.00;99736.72;2097246;28;20261;-77
2021/08/13 01:35:47;;;;;;;27.60;24.70;;;;;;;13.16;100.00;99728.06;2088810;28;20231;-78
2021/08/13 01:36:50;;;;;;;27.95;24.77;;;;;;;13.14;100.00;99728.38;2096744;28;20229;-78
2021/08/13 01:37:54;;;;;;;26.73;23.92;;;;;;;13.22;100.00;99726.94;2089182;28;20704;-78
2021/08/13 01:39:00;;;;;;;26.95;24.23;;;;;;;13.34;100.00;99729.09;2088787;28;20310;-78
2021/08/13 01:40:05;;;;;;;26.50;24.00;;;;;;;13.48;100.00;99732.59;2089776;28;20293;-78
2021/08/13 01:41:12;;;;;;;25.60;23.40;;;;;;;13.51;100.00;99743.50;2089602;28;20261;-78
2021/08/13 01:42:16;;;;;;;26.95;24.10;;;;;;;13.66;100.00;99738.94;2097282;28;20222;-78
2021/08/13 01:43:20;;;;;;;26.67;24.17;;;;;;;13.69;100.00;99732.97;2097242;28;20283;-78
2021/08/13 01:44:22;;;;;;;27.92;24.15;;;;;;;13.73;100.00;99733.97;2096873;28;20270;-76
2021/08/13 01:45:27;;;;;;;26.17;23.50;;;;;;;13.68;100.00;99726.81;2097349;28;20226;-76
2021/08/13 01:46:29;;;;;;;27.73;23.48;;;;;;;13.88;100.00;99736.31;2097051;28;20222;-76
2021/08/13 01:47:36;;;;;;;25.58;23.02;;;;;;;13.85;100.00;99729.66;2097302;28;20224;-76
2021/08/13 01:48:37;;;;;;;25.42;23.30;;;;;;;13.80;100.00;99729.78;2094742;28;20230;-76
2021/08/13 01:49:39;;;;;;;26.27;23.88;;;;;;;13.66;100.00;99722.84;2088806;28;20229;-76
2021/08/13 01:50:40;;;;;;;25.83;23.65;;;;;;;13.50;100.00;99728.53;2097266;28;20221;-76
2021/08/13 01:51:42;;;;;;;25.63;23.42;;;;;;;13.41;100.00;99727.63;2096651;28;20221;-76
2021/08/13 01:52:43;;;;;;;24.88;22.77;;;;;;;13.42;100.00;99726.53;2088980;28;20697;-75
2021/08/13 01:53:47;;;;;;;26.77;24.10;;;;;;;13.65;100.00;99727.44;2088972;28;20304;-76
2021/08/13 01:54:51;;;;;;;26.05;23.27;;;;;;;13.65;100.00;99740.03;2089674;28;20234;-76
2021/08/13 01:55:55;;;;;;;27.15;24.33;;;;;;;13.68;100.00;99736.75;2088559;28;20637;-76
2021/08/13 01:56:58;;;;;;;25.52;23.23;;;;;;;13.74;100.00;99732.88;2089472;28;20268;-76
2021/08/13 01:58:00;;;;;;;25.60;23.10;;;;;;;13.83;100.00;99733.75;2097117;28;20725;-75
2021/08/13 01:59:01;;;;;;;25.42;23.02;;;;;;;13.90;100.00;99734.16;2096387;28;20449;-76
2021/08/13 02:00:04;;;;;;;25.70;23.47;;;;;;;13.86;100.00;99735.84;2088890;28;20277;-76
2021/08/13 02:01:16;;;;;;;26.65;24.00;;;;;;;13.75;100.00;99726.41;2096823;28;20503;-76
2021/08/13 02:02:19;;;;;;;25.70;23.23;;;;;;;13.62;100.00;99724.53;2097107;28;20222;-77
2021/08/13 02:03:23;;;;;;;26.42;23.23;;;;;;;13.54;100.00;99728.69;2088645;28;20672;-77
2021/08/13 02:04:25;;;;;;;26.00;23.27;;;;;;;13.61;100.00;99728.31;2088869;28;20317;-76
2021/08/13 02:05:30;;;;;;;25.73;23.42;;;;;;;13.63;100.00;99729.59;2096973;28;20225;-76
2021/08/13 02:06:34;;;;;;;25.50;22.95;;;;;;;13.55;100.00;99728.44;2081340;28;20639;-76
2021/08/13 02:07:43;;;;;;;25.33;22.92;;;;;;;13.68;100.00;99732.19;2083639;28;20662;-76
2021/08/13 02:08:45;;;;;;;26.65;24.05;;;;;;;13.65;100.00;99723.94;2089059;28;20324;-76
2021/08/13 02:09:56;;;;;;;25.98;23.38;;;;;;;13.70;100.00;99735.34;2096692;28;20230;-76
2021/08/13 02:10:58;;;;;;;25.97;23.43;;;;;;;13.53;100.00;99725.22;2082053;28;20230;-76
2021/08/13 02:11:59;;;;;;;25.73;23.33;;;;;;;13.40;100.00;99734.09;2081711;28;20230;-76
2021/08/13 02:13:04;;;;;;;27.15;24.50;;;;;;;13.30;100.00;99734.28;2081028;28;20306;-76
2021/08/13 02:14:07;;;;;;;28.40;25.63;;;;;;;13.19;100.00;99730.16;2080672;28;20273;-76
2021/08/13 02:15:12;;;;;;;27.23;24.60;;;;;;;13.16;100.00;99730.75;2082166;28;20283;-76
2021/08/13 02:16:17;;;;;;;26.90;24.30;;;;;;;13.12;100.00;99729.75;2089122;28;20223;-76
2021/08/13 02:17:19;;;;;;;26.77;24.02;;;;;;;13.04;100.00;99728.56;2088717;28;20218;-76
2021/08/13 02:18:23;;;;;;;26.65;24.08;;;;;;;13.14;100.00;99730.28;2088682;28;20280;-76
2021/08/13 02:19:29;;;;;;;26.85;24.35;;;;;;;13.39;100.00;99729.03;2092932;28;20229;-76
2021/08/13 02:20:31;;;;;;;26.35;23.75;;;;;;;13.41;100.00;99727.63;2089241;28;20700;-76
2021/08/13 02:21:34;;;;;;;26.77;24.27;;;;;;;13.42;100.00;99733.78;2097071;28;20727;-76
2021/08/13 02:22:36;;;;;;;26.58;23.88;;;;;;;13.34;100.00;99726.44;2096939;28;20230;-76
2021/08/13 02:23:36;;;;;;;26.77;24.17;;;;;;;13.24;100.00;99733.56;2086058;28;20229;-77
2021/08/13 02:24:40;;;;;;;26.40;23.88;;;;;;;13.16;100.00;99738.78;2086866;28;20223;-76
2021/08/13 02:25:47;;;;;;;26.17;23.67;;;;;;;13.06;100.00;99737.09;2088653;28;20596;-76
2021/08/13 02:26:50;;;;;;;26.83;24.25;;;;;;;12.99;100.00;99734.00;2094501;28;20237;-76
2021/08/13 02:27:50;;;;;;;26.58;23.85;;;;;;;13.06;100.00;99741.66;2097032;28;20244;-76
2021/08/13 02:28:53;;;;;;;26.58;23.73;;;;;;;13.22;100.00;99734.97;2096269;28;20233;-76
2021/08/13 02:29:56;;;;;;;26.08;23.75;;;;;;;13.25;100.00;99745.88;2088961;28;20770;-76
2021/08/13 02:31:00;;;;;;;28.88;23.85;;;;;;;13.29;100.00;99746.06;2088507;28;20222;-76
2021/08/13 02:32:04;;;;;;;26.33;23.88;;;;;;;13.37;100.00;99741.91;2081702;28;20211;-76
2021/08/13 02:33:06;;;;;;;26.95;24.25;;;;;;;13.20;100.00;99737.94;2088622;28;20218;-76
2021/08/13 02:34:08;;;;;;;26.95;24.05;;;;;;;13.09;100.00;99743.75;2096416;28;20700;-76
2021/08/13 02:35:16;;;;;;;24.92;22.33;;;;;;;13.26;100.00;99744.78;2086682;28;20248;-76
2021/08/13 02:36:21;;;;;;;26.45;23.70;;;;;;;13.15;100.00;99742.56;2088321;28;20580;-76
2021/08/13 02:37:27;;;;;;;27.02;24.25;;;;;;;13.15;100.00;99734.53;2095722;28;20259;-75
2021/08/13 02:38:33;;;;;;;27.10;24.48;;;;;;;13.19;100.00;99730.16;2096812;28;20221;-76
2021/08/13 02:39:40;;;;;;;26.45;23.88;;;;;;;13.12;100.00;99738.59;2081221;28;20231;-76
2021/08/13 02:40:45;;;;;;;26.67;24.17;;;;;;;13.18;100.00;99739.28;2096544;28;20657;-76
2021/08/13 02:41:48;;;;;;;30.90;25.30;;;;;;;13.07;100.00;99730.66;2088858;28;20596;-76
2021/08/13 02:42:52;;;;;;;26.60;23.80;;;;;;;13.18;100.00;99744.66;2096386;28;20316;-76
2021/08/13 02:43:57;;;;;;;32.70;23.90;;;;;;;13.18;100.00;99737.41;2088633;28;20643;-76
2021/08/13 02:45:00;;;;;;;26.40;23.73;;;;;;;13.12;100.00;99733.25;2089011;28;20685;-77
2021/08/13 02:46:04;;;;;;;31.48;24.85;;;;;;;13.08;100.00;99728.75;2096960;28;20301;-76
2021/08/13 02:47:09;;;;;;;27.92;24.83;;;;;;;13.02;100.00;99723.47;2094279;28;20335;-76
2021/08/13 02:48:11;;;;;;;25.98;23.27;;;;;;;12.98;100.00;99724.38;2088639;28;20224;-76
2021/08/13 02:49:20;;;;;;;27.35;24.80;;;;;;;12.91;100.00;99732.00;2096716;28;20266;-76
2021/08/13 02:50:23;;;;;;;27.63;24.83;;;;;;;12.87;100.00;99729.13;2088591;28;20734;-76
2021/08/13 02:51:27;;;;;;;26.67;24.05;;;;;;;12.95;100.00;99733.81;2088273;28;20332;-76
2021/08/13 02:52:31;;;;;;;26.83;24.27;;;;;;;13.08;100.00;99740.28;2088947;28;20222;-75
2021/08/13 02:53:37;;;;;;;26.38;23.75;;;;;;;13.21;100.00;99734.19;2097092;28;20660;-76
2021/08/13 02:54:39;;;;;;;25.08;22.65;;;;;;;13.28;100.00;99733.75;2088741;28;20767;-76
2021/08/13 02:55:44;;;;;;;27.38;24.52;;;;;;;13.25;100.00;99731.69;2081791;28;20227;-76
2021/08/13 02:56:47;;;;;;;25.83;23.52;;;;;;;13.29;100.00;99725.44;2095808;28;20716;-76
2021/08/13 02:57:53;;;;;;;26.42;23.98;;;;;;;13.34;100.00;99727.22;2088774;28;20289;-76
2021/08/13 02:58:59;;;;;;;24.83;22.45;;;;;;;13.37;100.00;99731.19;2088542;28;20309;-75
2021/08/13 03:00:01;;;;;;;25.85;23.25;;;;;;;13.42;100.00;99723.84;2081772;28;20281;-76
2021/08/13 03:01:04;;;;;;;26.63;23.90;;;;;;;13.41;100.00;99726.84;2096321;28;20221;-76
2021/08/13 03:02:05;;;;;;;26.25;23.67;;;;;;;13.39;100.00;99729.03;2096550;28;20234;-76
2021/08/13 03:03:12;;;;;;;25.20;23.10;;;;;;;13.38;100.00;99722.06;2086713;28;20223;-76
2021/08/13 03:04:14;;;;;;;26.02;23.40;;;;;;;13.30;100.00;99726.25;2088671;28;20595;-76
2021/08/13 03:05:21;;;;;;;25.60;23.20;;;;;;;13.27;100.00;99721.47;2088384;28;20222;-76
2021/08/13 03:06:27;;;;;;;27.08;24.15;;;;;;;13.27;100.00;99721.47;2096584;28;20724;-77
2021/08/13 03:07:29;;;;;;;26.00;23.60;;;;;;;13.14;100.00;99723.03;2096470;28;20226;-76
2021/08/13 03:08:30;;;;;;;25.77;23.38;;;;;;;13.07;100.00;99724.50;2096452;28;20218;-77
2021/08/13 03:09:33;;;;;;;25.60;23.15;;;;;;;13.07;100.00;99727.97;2096747;28;20222;-76
2021/08/13 03:10:34;;;;;;;25.08;22.77;;;;;;;13.28;100.00;99725.72;2088365;28;20677;-75
2021/08/13 03:11:40;;;;;;;25.95;23.65;;;;;;;13.32;100.00;99724.06;2080409;28;20565;-76
2021/08/13 03:12:42;;;;;;;25.23;22.63;;;;;;;13.29;100.00;99721.94;2087273;28;20261;-76
2021/08/13 03:13:44;;;;;;;25.20;22.90;;;;;;;13.18;100.00;99729.34;2088338;28;20226;-76
2021/08/13 03:14:46;;;;;;;25.95;23.58;;;;;;;13.08;100.00;99723.41;2088064;28;20700;-76
2021/08/13 03:15:47;;;;;;;26.02;23.45;;;;;;;13.08;100.00;99726.88;2096609;28;20226;-76
2021/08/13 03:16:51;;;;;;;25.02;22.92;;;;;;;13.16;100.00;99720.03;2096490;28;20331;-76
2021/08/13 03:17:52;;;;;;;25.55;23.15;;;;;;;13.11;100.00;99723.59;2088246;28;20268;-76
2021/08/13 03:18:56;;;;;;;26.43;24.00;;;;;;;13.13;100.00;99728.69;2086476;28;20284;-76
2021/08/13 03:19:58;;;;;;;25.38;23.00;;;;;;;13.14;100.00;99724.91;2093331;28;20221;-76
2021/08/13 03:21:02;;;;;;;27.73;24.35;;;;;;;13.05;100.00;99729.38;2086247;28;20230;-76
2021/08/13 03:22:04;;;;;;;25.02;22.83;;;;;;;13.10;100.00;99726.56;2096507;28;20272;-76
2021/08/13 03:23:08;;;;;;;26.40;23.52;;;;;;;13.17;100.00;99721.63;2088039;28;20230;-76
2021/08/13 03:24:12;;;;;;;25.67;23.23;;;;;;;13.27;100.00;99721.47;2081617;28;20223;-76
2021/08/13 03:25:12;;;;;;;25.60;23.23;;;;;;;13.29;100.00;99719.28;2095161;28;20218;-77
2021/08/13 03:26:14;;;;;;;26.53;24.13;;;;;;;13.41;100.00;99721.47;2081070;28;20285;-76
2021/08/13 03:27:16;;;;;;;25.52;23.13;;;;;;;13.36;100.00;99714.31;2096360;28;20260;-76
2021/08/13 03:28:18;;;;;;;26.13;23.80;;;;;;;13.34;100.00;99713.81;2096466;28;20222;-76
2021/08/13 03:29:20;;;;;;;26.10;23.63;;;;;;;13.26;100.00;99717.19;2096378;28;20222;-76
2021/08/13 03:30:23;;;;;;;26.27;23.65;;;;;;;13.12;100.00;99713.66;2096120;28;20226;-76
2021/08/13 03:31:32;;;;;;;26.27;23.52;;;;;;;12.99;100.00;99721.41;2087909;28;20688;-77
2021/08/13 03:32:34;;;;;;;27.95;24.90;;;;;;;12.89;100.00;99721.59;2089210;28;20305;-76
2021/08/13 03:33:35;;;;;;;27.83;24.95;;;;;;;12.81;100.00;99718.78;2096328;28;20582;-76
2021/08/13 03:34:38;;;;;;;27.88;25.20;;;;;;;12.75;100.00;99723.44;2096015;28;20242;-76
2021/08/13 03:35:40;;;;;;;26.90;24.27;;;;;;;12.77;100.00;99718.59;2088463;28;20230;-76
2021/08/13 03:36:44;;;;;;;25.52;23.33;;;;;;;12.93;100.00;99719.91;2081323;28;20227;-76
2021/08/13 03:37:45;;;;;;;25.95;23.50;;;;;;;13.06;100.00;99715.66;2095275;28;20218;-76
2021/08/13 03:38:47;;;;;;;25.98;23.20;;;;;;;13.18;100.00;99715.97;2085833;28;20225;-76
2021/08/13 03:39:48;;;;;;;25.90;23.40;;;;;;;13.36;100.00;99714.31;2088022;28;20229;-76
2021/08/13 03:40:50;;;;;;;25.70;23.33;;;;;;;13.20;100.00;99711.13;2096363;28;20226;-76
2021/08/13 03:41:51;;;;;;;26.08;23.35;;;;;;;13.13;100.00;99716.06;2088039;28;20234;-76
2021/08/13 03:42:53;;;;;;;25.55;23.02;;;;;;;13.36;100.00;99719.66;2087759;28;20283;-76
2021/08/13 03:43:55;;;;;;;25.92;23.23;;;;;;;13.24;100.00;99711.34;2088237;28;20630;-76
2021/08/13 03:44:58;;;;;;;26.50;23.77;;;;;;;13.21;100.00;99712.75;2081124;28;20663;-76
2021/08/13 03:45:58;;;;;;;25.73;22.90;;;;;;;13.28;100.00;99710.44;2086921;28;20297;-76
2021/08/13 03:47:00;;;;;;;25.00;22.57;;;;;;;13.34;100.00;99711.13;2096410;28;20226;-75
2021/08/13 03:48:01;;;;;;;26.00;23.42;;;;;;;13.43;100.00;99712.03;2095974;28;20226;-76
2021/08/13 03:49:02;;;;;;;26.03;23.53;;;;;;;13.58;100.00;99721.66;2096210;28;20221;-76
2021/08/13 03:50:04;;;;;;;25.85;23.35;;;;;;;13.62;100.00;99717.28;2097130;28;20228;-77
2021/08/13 03:51:05;;;;;;;26.42;23.65;;;;;;;13.63;100.00;99718.06;2096197;28;20590;-76
2021/08/13 03:52:07;;;;;;;26.80;24.40;;;;;;;13.48;100.00;99717.31;2088175;28;20381;-76
2021/08/13 03:53:11;;;;;;;25.80;23.17;;;;;;;13.51;100.00;99722.06;2087795;28;20226;-76
2021/08/13 03:54:11;;;;;;;26.35;23.85;;;;;;;13.53;100.00;99719.88;2087847;28;20260;-76
2021/08/13 03:55:14;;;;;;;26.80;24.07;;;;;;;13.41;100.00;99722.28;2087972;28;20312;-76
2021/08/13 03:56:15;;;;;;;27.00;24.52;;;;;;;13.30;100.00;99726.25;2088102;28;20233;-76
2021/08/13 03:57:17;;;;;;;27.20;24.67;;;;;;;13.18;100.00;99728.56;2096332;28;20213;-76
2021/08/13 03:58:17;;;;;;;28.15;25.23;;;;;;;13.08;100.00;99734.13;2096168;28;20249;-76
2021/08/13 03:59:19;;;;;;;27.13;24.40;;;;;;;12.99;100.00;99736.69;2096194;28;20218;-76
2021/08/13 04:00:21;;;;;;;29.33;24.83;;;;;;;12.92;100.00;99734.38;2096174;28;20576;-76
2021/08/13 04:01:24;;;;;;;26.73;24.17;;;;;;;12.89;100.00;99737.66;2095777;28;20225;-76
2021/08/13 04:02:26;;;;;;;27.47;24.53;;;;;;;13.10;100.00;99738.09;2081577;28;20254;-76
2021/08/13 04:03:27;;;;;;;27.08;24.23;;;;;;;13.25;100.00;99739.72;2086592;28;20748;-76
2021/08/13 04:04:28;;;;;;;28.17;23.77;;;;;;;13.26;100.00;99735.94;2088025;28;20625;-76
2021/08/13 04:05:30;;;;;;;25.73;23.15;;;;;;;13.22;100.00;99722.38;2087914;28;20226;-76
2021/08/13 04:06:33;;;;;;;26.45;23.88;;;;;;;13.44;100.00;99732.38;2096192;28;20673;-76
2021/08/13 04:07:38;;;;;;;25.63;23.33;;;;;;;13.41;100.00;99733.00;2081712;28;20318;-76
2021/08/13 04:08:40;;;;;;;26.75;24.25;;;;;;;13.47;100.00;99728.34;2096161;28;20222;-76
2021/08/13 04:09:41;;;;;;;30.42;23.85;;;;;;;13.43;100.00;99720.06;2081308;28;21256;-76
2021/08/13 04:10:46;;;;;;;26.33;24.00;;;;;;;13.48;100.00;99720.00;2087346;28;20278;-76
2021/08/13 04:11:47;;;;;;;26.55;24.08;;;;;;;13.64;100.00;99719.66;2096274;28;20221;-76
2021/08/13 04:12:49;;;;;;;26.23;23.70;;;;;;;13.71;100.00;99720.06;2080455;28;20281;-76
2021/08/13 04:13:59;;;;;;;25.92;23.13;;;;;;;13.75;100.00;99721.06;2086520;28;20701;-75
2021/08/13 04:15:01;;;;;;;25.45;23.00;;;;;;;13.77;100.00;99721.53;2080062;28;20219;-77
2021/08/13 04:16:02;;;;;;;23.83;21.73;;;;;;;13.79;100.00;99716.66;2079530;28;20292;-76
2021/08/13 04:17:05;;;;;;;25.73;23.23;;;;;;;13.76;100.00;99711.91;2079854;28;20223;-76
2021/08/13 04:18:06;;;;;;;25.77;23.38;;;;;;;13.78;100.00;99717.75;2095622;28;20275;-76
2021/08/13 04:19:08;;;;;;;24.67;22.17;;;;;;;14.06;100.00;99713.91;2081588;28;20382;-76
2021/08/13 04:20:12;;;;;;;25.95;23.65;;;;;;;14.12;100.00;99711.91;2094859;28;20233;-76
2021/08/13 04:21:19;;;;;;;26.38;23.75;;;;;;;14.01;100.00;99711.34;2088703;28;20314;-77
2021/08/13 04:22:20;;;;;;;27.75;24.77;;;;;;;14.02;100.00;99712.94;2096307;28;20699;-76
2021/08/13 04:23:23;;;;;;;26.60;24.20;;;;;;;14.11;100.00;99704.97;2096286;28;20218;-77
2021/08/13 04:24:23;;;;;;;27.17;24.75;;;;;;;14.08;100.00;99708.28;2096693;28;20700;-76
2021/08/13 04:25:25;;;;;;;27.37;24.80;;;;;;;14.02;100.00;99710.25;2096216;28;20622;-76
2021/08/13 04:26:29;;;;;;;28.38;25.63;;;;;;;13.97;100.00;99702.31;2088270;28;20786;-76
2021/08/13 04:27:31;;;;;;;31.27;28.10;;;;;;;13.96;100.00;99719.50;2096312;28;20218;-77
2021/08/13 04:28:31;;;;;;;32.60;28.58;;;;;;;13.95;100.00;99712.56;2096029;28;20229;-76
2021/08/13 04:29:34;;;;;;;32.22;27.02;;;;;;;14.10;100.00;99712.22;2086043;28;20222;-76
2021/08/13 04:30:35;;;;;;;28.20;25.70;;;;;;;14.31;100.00;99719.81;2088002;28;20222;-76
2021/08/13 04:31:39;;;;;;;26.77;24.02;;;;;;;14.42;100.00;99713.91;2087706;28;20226;-76
2021/08/13 04:32:42;;;;;;;26.20;23.63;;;;;;;14.56;100.00;99716.53;2088362;28;20632;-75
2021/08/13 04:33:46;;;;;;;28.33;25.45;;;;;;;14.53;100.00;99719.84;2080858;28;20227;-76
2021/08/13 04:34:51;;;;;;;28.42;25.67;;;;;;;14.77;100.00;99724.09;2088147;28;20231;-76
2021/08/13 04:35:54;;;;;;;30.33;27.52;;;;;;;14.77;100.00;99713.34;2095805;28;20267;-76
2021/08/13 04:36:57;;;;;;;30.02;27.08;;;;;;;14.79;100.00;99719.22;2087636;28;20227;-77
2021/08/13 04:37:57;;;;;;;29.58;26.65;;;;;;;14.84;100.00;99711.00;2094946;28;20222;-75
2021/08/13 04:39:01;;;;;;;29.60;26.70;;;;;;;14.95;100.00;99723.13;2095908;28;20305;-76
2021/08/13 04:40:08;;;;;;;29.15;26.05;;;;;;;15.05;100.00;99711.31;2088173;28;20719;-76
2021/08/13 04:41:16;;;;;;;31.00;27.77;;;;;;;15.08;100.00;99719.53;2088960;28;20604;-76
2021/08/13 04:42:18;;;;;;;33.05;29.55;;;;;;;15.15;100.00;99719.88;2096250;28;20721;-74
2021/08/13 04:43:20;;;;;;;36.17;28.47;;;;;;;15.27;100.00;99717.38;2096179;28;20635;-76
2021/08/13 04:44:21;;;;;;;38.42;30.70;;;;;;;15.22;100.00;99720.22;2087460;28;20272;-76
2021/08/13 04:45:23;;;;;;;35.00;28.97;;;;;;;15.17;100.00;99719.56;2096055;28;20283;-76
2021/08/13 04:46:26;;;;;;;34.75;31.30;;;;;;;15.14;100.00;99722.88;2096096;28;22466;-76
2021/08/13 04:47:29;;;;;;;34.80;29.90;;;;;;;15.26;100.00;99720.38;2087693;28;20633;-76
2021/08/13 04:48:30;;;;;;;37.45;33.53;;;;;;;15.23;100.00;99727.19;2087983;28;20232;-75